Hauptseite
METAR-TAF:

METAR-TAF

Flughäfen :

Flughafen Girona

Girona, Spanien

Breite: 41-54N, Länge: 002-46E, Höhe: 143 m

Beobachtung

Neuester Wetterbericht von vor 43 Minuten, um 04:30 UTC
Windstille
Temperatur 1°C
Luftfeuchtigkeit 93%
Luftdruck 1008 hPa
Sichtweite 10 km oder mehr
keine Wolken unter 1500 m und keine Kumulonimbus oder Gewitterwolken

METAR: LEGE 170430Z 00000KT CAVOK 01/00 Q1008

Zeit: 06:13 (05:13 UTC)

Prognose

Neuester Wetterbericht von vor 6 Stunden und 13 Minuten, um 23:00 UTC
Gültige Prognose vom 17 um 00 UTC bis 17 um 24 UTC
Wind 4 kt aus unterschiedlichen Richtungen
Sichtweite 10 km oder mehr
Leicht bewölkt in der Höhe von 2000 ft

TAF: LEGE 162300Z 1700/1724 VRB04KT 9999 FEW020 TX14/1713Z TN00/1706Z

Wetterbeobachtungen und Prognosen von mehr als 4000 Flughäfen (METAR und TAF Bericht).

Die verfügbaren Stationen werden durch gelbe und rote Markierungen auf der Karte dargestellt.

Führen Sie die Maus auf sie, um den Namen der Station zu sehen.

Darauf klicken, um die Beobachtung von Wetterbeobachtungen und Prognosen zu sehen.

Um die Karte zu ändern : klicken Sie auf den grünen Tasten mit einem schwarzen Kreuz Zum Vergrößern, auf den grünen Button mit einem Gedankenstrich zu verkleinern, oder auf die grünen Pfeile für benachbarte Karten.


METAR-TAF: